createdAt,value
2018-12-24T00:00:10.432Z,8.80
2018-12-24T00:02:38.972Z,8.80
2018-12-24T00:05:07.523Z,8.80
2018-12-24T00:07:36.177Z,8.90
2018-12-24T00:10:05.358Z,8.80
2018-12-24T00:12:33.899Z,8.80
2018-12-24T00:15:02.783Z,8.80
2018-12-24T00:17:31.332Z,8.70
2018-12-24T00:20:00.268Z,8.70
2018-12-24T00:22:28.942Z,8.60
2018-12-24T00:24:57.643Z,8.60
2018-12-24T00:27:26.467Z,8.60
2018-12-24T00:29:55.263Z,8.60
2018-12-24T00:32:24.244Z,8.60
2018-12-24T00:34:52.754Z,8.60
2018-12-24T00:40:18.122Z,8.50
2018-12-24T00:42:46.664Z,8.50
2018-12-24T00:45:15.528Z,8.50
2018-12-24T00:47:44.245Z,8.50
2018-12-24T00:50:12.830Z,8.40
2018-12-24T00:52:41.694Z,8.50
2018-12-24T00:55:10.584Z,8.40
2018-12-24T00:57:39.362Z,8.40
2018-12-24T01:00:08.478Z,8.40
2018-12-24T01:02:37.060Z,8.40
2018-12-24T01:05:05.638Z,8.40
2018-12-24T01:07:34.138Z,8.40
2018-12-24T01:10:02.693Z,8.40
2018-12-24T01:12:31.267Z,8.30
2018-12-24T01:15:00.272Z,8.30
2018-12-24T01:17:28.864Z,8.30
2018-12-24T01:19:57.402Z,8.30
2018-12-24T01:22:28.171Z,8.30
2018-12-24T01:24:56.578Z,8.30
2018-12-24T01:27:25.435Z,8.20
2018-12-24T01:29:53.980Z,8.30
2018-12-24T01:32:22.799Z,8.30
2018-12-24T01:34:51.359Z,8.30
2018-12-24T01:37:20.267Z,8.30
2018-12-24T01:39:48.818Z,8.30
2018-12-24T01:42:17.759Z,8.30
2018-12-24T01:44:46.309Z,8.30
2018-12-24T01:47:14.823Z,8.40
2018-12-24T01:49:43.431Z,8.40
2018-12-24T01:52:11.935Z,8.40
2018-12-24T01:54:40.502Z,8.40
2018-12-24T01:57:09.006Z,8.40
2018-12-24T01:59:37.833Z,8.40
2018-12-24T02:02:06.387Z,8.40
2018-12-24T02:04:35.278Z,8.50
2018-12-24T02:07:03.819Z,8.50
2018-12-24T02:09:32.334Z,8.60
2018-12-24T02:12:00.921Z,8.60
2018-12-24T02:14:29.427Z,8.60
2018-12-24T02:16:58.454Z,8.60
2018-12-24T02:19:27.388Z,8.70
2018-12-24T02:21:55.938Z,8.60
2018-12-24T02:24:24.790Z,8.70
2018-12-24T02:26:53.402Z,8.60
2018-12-24T02:29:22.083Z,8.60
2018-12-24T02:31:50.630Z,8.60
2018-12-24T02:34:19.143Z,8.60
2018-12-24T02:36:47.686Z,8.60
2018-12-24T02:39:16.190Z,8.70
2018-12-24T02:41:44.731Z,8.70
2018-12-24T02:44:13.242Z,8.70
2018-12-24T02:46:41.794Z,8.70
2018-12-24T02:49:10.614Z,8.80
2018-12-24T02:51:39.487Z,8.70
2018-12-24T02:54:08.281Z,8.70
2018-12-24T02:56:36.826Z,8.80
2018-12-24T02:59:05.336Z,8.80
2018-12-24T03:01:34.135Z,8.80
2018-12-24T03:04:02.646Z,8.80
2018-12-24T03:06:31.619Z,8.80
2018-12-24T03:09:00.144Z,8.80
2018-12-24T03:11:28.689Z,8.80
2018-12-24T03:13:57.186Z,8.90
2018-12-24T03:16:25.876Z,8.80
2018-12-24T03:18:54.400Z,8.80
2018-12-24T03:21:22.923Z,8.80
2018-12-24T03:23:51.431Z,8.80
2018-12-24T03:26:20.270Z,8.80
2018-12-24T03:28:48.817Z,8.80
2018-12-24T03:31:17.334Z,8.80
2018-12-24T03:33:45.870Z,8.80
2018-12-24T03:36:14.382Z,8.80
2018-12-24T03:38:42.919Z,8.80
2018-12-24T03:41:11.426Z,8.70
2018-12-24T03:43:40.039Z,8.80
2018-12-24T03:46:08.537Z,8.70
2018-12-24T03:48:37.342Z,8.70
2018-12-24T03:51:05.930Z,8.70
2018-12-24T03:53:34.516Z,8.70
2018-12-24T03:56:03.031Z,8.70
2018-12-24T03:58:31.850Z,8.60
2018-12-24T04:01:00.360Z,8.60
2018-12-24T04:03:28.912Z,8.60
2018-12-24T04:05:57.424Z,8.60
2018-12-24T04:08:25.959Z,8.60
2018-12-24T04:10:54.469Z,8.60
2018-12-24T04:13:23.061Z,8.70
2018-12-24T04:15:51.928Z,8.70
2018-12-24T04:18:20.642Z,8.70
2018-12-24T04:20:49.405Z,8.70
2018-12-24T04:23:17.947Z,8.70
2018-12-24T04:25:46.788Z,8.70
2018-12-24T04:28:15.407Z,8.70
2018-12-24T04:30:43.919Z,8.70
2018-12-24T04:33:12.468Z,8.70
2018-12-24T04:35:40.970Z,8.60
2018-12-24T04:38:09.558Z,8.60
2018-12-24T04:40:38.067Z,8.60
2018-12-24T04:43:06.980Z,8.60
2018-12-24T04:45:35.483Z,8.60
2018-12-24T04:48:04.104Z,8.60
2018-12-24T04:50:32.623Z,8.60
2018-12-24T04:53:01.526Z,8.60
2018-12-24T04:55:30.033Z,8.70
2018-12-24T04:57:58.654Z,8.60
2018-12-24T05:00:27.186Z,8.70
2018-12-24T05:02:56.143Z,8.60
2018-12-24T05:05:25.018Z,8.70
2018-12-24T05:07:53.575Z,8.70
2018-12-24T05:10:22.426Z,8.70
2018-12-24T05:12:51.099Z,8.60
2018-12-24T05:15:19.971Z,8.60
2018-12-24T05:17:48.493Z,8.60
2018-12-24T05:20:17.047Z,8.60
2018-12-24T05:22:45.562Z,8.70
2018-12-24T05:25:14.102Z,8.70
2018-12-24T05:27:42.896Z,8.70
2018-12-24T05:30:11.769Z,8.70
2018-12-24T05:32:40.274Z,8.70
2018-12-24T05:35:08.782Z,8.70
2018-12-24T05:37:37.326Z,8.70
2018-12-24T05:40:06.223Z,8.70
2018-12-24T05:42:35.210Z,8.70
2018-12-24T05:45:04.103Z,8.70
2018-12-24T05:47:32.653Z,8.60
2018-12-24T05:50:01.168Z,8.60
2018-12-24T05:52:29.718Z,8.60
2018-12-24T05:54:58.300Z,8.50
2018-12-24T05:57:26.853Z,8.40
2018-12-24T05:59:55.686Z,8.40
2018-12-24T06:02:24.285Z,8.40
2018-12-24T06:04:53.467Z,8.40
2018-12-24T06:07:22.078Z,8.40
2018-12-24T06:09:50.837Z,8.40
2018-12-24T06:12:19.343Z,8.40
2018-12-24T06:14:48.211Z,8.30
2018-12-24T06:17:16.893Z,8.40
2018-12-24T06:19:45.415Z,8.40
2018-12-24T06:22:13.952Z,8.40
2018-12-24T06:24:42.862Z,8.30
2018-12-24T06:27:11.414Z,8.30
2018-12-24T06:29:40.246Z,8.30
2018-12-24T06:32:08.852Z,8.20
2018-12-24T06:34:37.371Z,8.20
2018-12-24T06:37:05.923Z,8.10
2018-12-24T06:39:34.435Z,8.10
2018-12-24T06:42:02.976Z,8.00
2018-12-24T06:44:31.838Z,8.00
2018-12-24T06:47:00.509Z,7.90
2018-12-24T06:49:29.290Z,7.80
2018-12-24T06:51:57.856Z,7.70
2018-12-24T06:54:26.367Z,7.60
2018-12-24T06:56:55.260Z,7.60
2018-12-24T06:59:23.766Z,7.60
2018-12-24T07:01:52.739Z,7.60
2018-12-24T07:04:21.741Z,7.60
2018-12-24T07:06:50.623Z,7.60
2018-12-24T07:09:19.157Z,7.60
2018-12-24T07:11:47.662Z,7.60
2018-12-24T07:14:16.211Z,7.60
2018-12-24T07:16:44.737Z,7.60
2018-12-24T07:19:13.639Z,7.60
2018-12-24T07:21:42.138Z,7.60
2018-12-24T07:24:10.738Z,7.60
2018-12-24T07:26:39.252Z,7.70
2018-12-24T07:29:07.799Z,7.60
2018-12-24T07:31:36.312Z,7.60
2018-12-24T07:34:04.924Z,7.70
2018-12-24T07:36:33.438Z,7.60
2018-12-24T07:39:02.291Z,7.60
2018-12-24T07:41:31.072Z,7.60
2018-12-24T07:43:59.645Z,7.60
2018-12-24T07:46:28.444Z,7.70
2018-12-24T07:48:57.441Z,7.70
2018-12-24T07:51:25.970Z,7.70
2018-12-24T07:53:54.824Z,7.70
2018-12-24T07:56:23.609Z,7.70
2018-12-24T07:58:52.144Z,7.70
2018-12-24T08:01:20.971Z,7.70
2018-12-24T08:03:49.853Z,7.60
2018-12-24T08:06:18.671Z,7.60
2018-12-24T08:08:47.214Z,7.60
2018-12-24T08:11:16.027Z,7.60
2018-12-24T08:13:44.635Z,7.50
2018-12-24T08:16:13.493Z,7.50
2018-12-24T08:18:42.025Z,7.40
2018-12-24T08:21:10.544Z,7.40
2018-12-24T08:23:39.271Z,7.40
2018-12-24T08:26:07.786Z,7.30
2018-12-24T08:28:36.299Z,7.30
2018-12-24T08:31:04.897Z,7.30
2018-12-24T08:33:33.586Z,7.30
2018-12-24T08:36:02.138Z,7.20
2018-12-24T08:38:30.686Z,7.20
2018-12-24T08:40:59.534Z,7.20
2018-12-24T08:43:28.388Z,7.20
2018-12-24T08:46:00.072Z,7.20
2018-12-24T08:48:28.950Z,7.20
2018-12-24T08:50:57.543Z,7.20
2018-12-24T08:53:26.335Z,7.20
2018-12-24T08:55:55.216Z,7.20
2018-12-24T08:58:24.009Z,7.20
2018-12-24T09:00:52.550Z,7.20
2018-12-24T09:03:21.070Z,7.20
2018-12-24T09:05:49.566Z,7.20
2018-12-24T09:08:18.538Z,7.20
2018-12-24T09:10:47.346Z,7.10
2018-12-24T09:13:16.215Z,7.10
2018-12-24T09:15:45.002Z,7.10
2018-12-24T09:18:13.585Z,7.20
2018-12-24T09:20:42.386Z,7.20
2018-12-24T09:23:11.288Z,7.20
2018-12-24T09:25:39.806Z,7.20
2018-12-24T09:28:08.362Z,7.20
2018-12-24T09:30:37.435Z,7.30
2018-12-24T09:33:06.143Z,7.20
2018-12-24T09:35:35.011Z,7.30
2018-12-24T09:38:03.587Z,7.20
2018-12-24T09:40:32.467Z,7.30
2018-12-24T09:43:01.279Z,7.30
2018-12-24T09:45:30.172Z,7.30
2018-12-24T09:47:58.682Z,7.30
2018-12-24T09:50:27.565Z,7.40
2018-12-24T09:52:56.379Z,7.40
2018-12-24T09:55:24.881Z,7.40
2018-12-24T09:57:53.390Z,7.40
2018-12-24T10:00:21.930Z,7.40
2018-12-24T10:02:52.934Z,7.50
2018-12-24T10:05:23.215Z,7.50
2018-12-24T10:07:51.936Z,7.50
2018-12-24T10:10:20.534Z,7.60
2018-12-24T10:12:49.199Z,7.70
2018-12-24T10:15:18.079Z,7.70
2018-12-24T10:17:46.849Z,7.80
2018-12-24T10:20:15.747Z,8.00
2018-12-24T10:22:44.543Z,8.10
2018-12-24T10:25:13.086Z,8.20
2018-12-24T10:27:43.017Z,8.20
2018-12-24T10:30:11.638Z,8.30
2018-12-24T10:32:40.508Z,8.40
2018-12-24T10:35:09.048Z,8.50
2018-12-24T10:37:37.557Z,8.50
2018-12-24T10:40:09.199Z,8.50
2018-12-24T10:42:37.715Z,8.50
2018-12-24T10:45:06.322Z,8.50
2018-12-24T10:47:35.282Z,8.60
2018-12-24T10:50:04.475Z,8.60
2018-12-24T10:52:32.999Z,8.60
2018-12-24T10:55:01.858Z,8.60
2018-12-24T10:57:30.633Z,8.70
2018-12-24T10:59:59.541Z,8.80
2018-12-24T11:02:28.061Z,9.00
2018-12-24T11:04:56.668Z,9.10
2018-12-24T11:07:25.465Z,9.20
2018-12-24T11:09:54.462Z,9.20
2018-12-24T11:12:22.963Z,9.20
2018-12-24T11:14:51.545Z,9.20
2018-12-24T11:17:20.419Z,9.10
2018-12-24T11:19:48.923Z,9.10
2018-12-24T11:22:17.798Z,9.10
2018-12-24T11:24:46.574Z,9.00
2018-12-24T11:27:15.127Z,9.10
2018-12-24T11:29:43.944Z,9.10
2018-12-24T11:32:12.712Z,9.30
2018-12-24T11:34:41.217Z,9.60
2018-12-24T11:37:10.423Z,9.90
2018-12-24T11:39:39.130Z,10.00
2018-12-24T11:42:08.010Z,10.10
2018-12-24T11:44:36.888Z,10.30
2018-12-24T11:47:05.777Z,10.50
2018-12-24T11:49:34.297Z,10.80
2018-12-24T11:52:02.856Z,11.10
2018-12-24T11:54:31.614Z,11.20
2018-12-24T11:57:00.270Z,11.10
2018-12-24T11:59:29.110Z,11.20
2018-12-24T12:01:57.634Z,11.30
2018-12-24T12:04:26.150Z,11.30
2018-12-24T12:06:54.684Z,11.40
2018-12-24T12:09:23.196Z,11.40
2018-12-24T12:11:51.793Z,11.30
2018-12-24T12:14:20.305Z,11.40
2018-12-24T12:16:49.198Z,11.40
2018-12-24T12:19:17.784Z,11.50
2018-12-24T12:21:46.664Z,11.70
2018-12-24T12:24:15.171Z,11.70
2018-12-24T12:26:43.817Z,11.60
2018-12-24T12:29:12.310Z,11.60
2018-12-24T12:31:40.868Z,11.80
2018-12-24T12:34:09.385Z,12.10
2018-12-24T12:36:38.048Z,12.30
2018-12-24T12:39:07.708Z,12.40
2018-12-24T12:41:36.555Z,12.40
2018-12-24T12:44:05.432Z,12.20
2018-12-24T12:46:34.316Z,12.00
2018-12-24T12:49:03.216Z,11.90
2018-12-24T12:51:32.098Z,11.80
2018-12-24T12:54:01.039Z,11.60
2018-12-24T12:56:29.713Z,11.50
2018-12-24T12:58:58.579Z,11.40
2018-12-24T13:01:27.486Z,11.20
2018-12-24T13:03:56.341Z,11.10
2018-12-24T13:06:25.514Z,11.00
2018-12-24T13:08:54.433Z,10.90
2018-12-24T13:11:22.952Z,11.00
2018-12-24T13:13:51.802Z,11.00
2018-12-24T13:16:20.607Z,11.00
2018-12-24T13:18:49.157Z,11.00
2018-12-24T13:21:17.971Z,11.10
2018-12-24T13:23:46.512Z,11.40
2018-12-24T13:26:15.582Z,11.70
2018-12-24T13:28:44.439Z,12.00
2018-12-24T13:31:12.982Z,12.20
2018-12-24T13:33:41.581Z,12.60
2018-12-24T13:36:10.099Z,12.90
2018-12-24T13:38:38.635Z,13.00
2018-12-24T13:41:07.144Z,13.00
2018-12-24T13:43:35.682Z,12.90
2018-12-24T13:46:08.181Z,12.80
2018-12-24T13:48:34.811Z,12.80
2018-12-24T13:51:03.396Z,12.70
2018-12-24T13:53:32.350Z,12.50
2018-12-24T13:56:35.487Z,12.40
2018-12-24T13:59:03.960Z,12.40
2018-12-24T14:01:32.646Z,12.40
2018-12-24T14:04:01.446Z,12.30
2018-12-24T14:06:30.138Z,12.20
2018-12-24T14:08:58.539Z,12.30
2018-12-24T14:11:28.983Z,12.40
2018-12-24T14:14:14.514Z,12.40
2018-12-24T14:16:42.732Z,12.40
2018-12-24T14:19:11.161Z,12.30
2018-12-24T14:21:39.925Z,12.20
2018-12-24T14:24:08.624Z,12.20
2018-12-24T14:26:37.330Z,12.10
2018-12-24T14:29:06.208Z,12.10
2018-12-24T14:31:36.562Z,12.20
2018-12-24T14:34:05.261Z,12.20
2018-12-24T14:36:36.995Z,12.30
2018-12-24T14:39:07.318Z,12.40
2018-12-24T14:41:36.191Z,12.50
2018-12-24T14:44:04.594Z,12.60
2018-12-24T14:46:33.235Z,12.60
2018-12-24T14:49:01.644Z,12.60
2018-12-24T14:51:30.696Z,12.40
2018-12-24T14:53:59.695Z,12.30
2018-12-24T14:56:28.119Z,12.10
2018-12-24T14:58:57.157Z,11.90
2018-12-24T15:01:25.698Z,11.60
2018-12-24T15:03:54.312Z,11.40
2018-12-24T15:06:22.983Z,11.30
2018-12-24T15:08:51.423Z,11.10
2018-12-24T15:11:20.111Z,10.80
2018-12-24T15:13:48.563Z,10.70
2018-12-24T15:16:16.995Z,10.60
2018-12-24T15:18:45.756Z,10.50
2018-12-24T15:21:14.437Z,10.40
2018-12-24T15:23:42.910Z,10.30
2018-12-24T15:26:11.339Z,10.30
2018-12-24T15:28:39.794Z,10.20
2018-12-24T15:31:08.211Z,10.10
2018-12-24T15:33:36.949Z,10.00
2018-12-24T15:36:05.647Z,10.00
2018-12-24T15:38:34.098Z,9.90
2018-12-24T15:41:02.566Z,9.90
2018-12-24T15:43:31.040Z,9.80
2018-12-24T15:45:59.770Z,9.70
2018-12-24T15:48:28.678Z,9.70
2018-12-24T15:50:57.347Z,9.60
2018-12-24T15:53:26.008Z,9.50
2018-12-24T15:55:54.719Z,9.40
2018-12-24T15:58:23.406Z,9.30
2018-12-24T16:00:52.183Z,9.20
2018-12-24T16:03:20.629Z,9.00
2018-12-24T16:05:49.039Z,9.00
2018-12-24T16:08:17.835Z,9.00
2018-12-24T16:10:46.613Z,8.90
2018-12-24T16:13:15.295Z,8.90
2018-12-24T16:15:43.738Z,8.90
2018-12-24T16:18:12.138Z,8.90
2018-12-24T16:20:40.855Z,8.90
2018-12-24T16:23:09.273Z,8.90
2018-12-24T16:25:37.706Z,8.90
2018-12-24T16:28:06.193Z,8.80
2018-12-24T16:30:34.984Z,8.70
2018-12-24T16:33:03.422Z,8.70
2018-12-24T16:35:31.865Z,8.70
2018-12-24T16:38:00.324Z,8.70
2018-12-24T16:40:28.768Z,8.70
2018-12-24T16:42:57.490Z,8.70
2018-12-24T16:45:25.932Z,8.80
2018-12-24T16:47:54.647Z,8.80
2018-12-24T16:50:23.424Z,8.80
2018-12-24T16:52:51.838Z,8.80
2018-12-24T16:55:20.586Z,8.90
2018-12-24T16:57:49.273Z,8.80
2018-12-24T17:00:18.087Z,8.90
2018-12-24T17:02:46.778Z,8.90
2018-12-24T17:05:15.383Z,8.90
2018-12-24T17:07:43.782Z,8.90
2018-12-24T17:10:12.241Z,8.90
2018-12-24T17:12:40.973Z,8.90
2018-12-24T17:15:09.413Z,8.80
2018-12-24T17:17:37.821Z,8.80
2018-12-24T17:20:06.332Z,8.60
2018-12-24T17:22:35.029Z,8.60
2018-12-24T17:25:03.548Z,8.50
2018-12-24T17:27:35.355Z,8.50
2018-12-24T17:30:05.535Z,8.50
2018-12-24T17:32:33.958Z,8.50
2018-12-24T17:35:02.390Z,8.50
2018-12-24T17:37:31.126Z,8.50
2018-12-24T17:39:59.558Z,8.50
2018-12-24T17:42:27.964Z,8.50
2018-12-24T17:44:56.795Z,8.50
2018-12-24T17:47:25.538Z,8.50
2018-12-24T17:49:54.232Z,8.50
2018-12-24T17:52:22.931Z,8.50
2018-12-24T17:54:51.366Z,8.50
2018-12-24T17:57:19.777Z,8.50
2018-12-24T17:59:48.565Z,8.50
2018-12-24T18:02:17.255Z,8.60
2018-12-24T18:04:46.026Z,8.50
2018-12-24T18:07:14.443Z,8.50
2018-12-24T18:09:42.892Z,8.50
2018-12-24T18:12:11.591Z,8.40
2018-12-24T18:14:40.363Z,8.40
2018-12-24T18:17:08.777Z,8.40
2018-12-24T18:19:37.528Z,8.40
2018-12-24T18:22:06.040Z,8.50
2018-12-24T18:24:34.706Z,8.40
2018-12-24T18:27:03.485Z,8.40
2018-12-24T18:29:32.166Z,8.50
2018-12-24T18:32:00.976Z,8.60
2018-12-24T18:34:29.369Z,8.60
2018-12-24T18:36:57.808Z,8.60
2018-12-24T18:39:26.217Z,8.60
2018-12-24T18:41:54.650Z,8.60
2018-12-24T18:44:23.051Z,8.50
2018-12-24T18:46:51.839Z,8.40
2018-12-24T18:49:20.249Z,8.40
2018-12-24T18:51:49.028Z,8.30
2018-12-24T18:54:17.791Z,8.30
2018-12-24T18:56:46.323Z,8.30
2018-12-24T18:59:15.065Z,8.30
2018-12-24T19:01:43.505Z,8.30
2018-12-24T19:04:11.970Z,8.30
2018-12-24T19:06:40.616Z,8.30
2018-12-24T19:09:09.059Z,8.20
2018-12-24T19:11:37.878Z,8.20
2018-12-24T19:14:06.292Z,8.20
2018-12-24T19:16:34.706Z,8.10
2018-12-24T19:19:03.129Z,8.00
2018-12-24T19:21:31.546Z,8.00
2018-12-24T19:24:00.269Z,8.00
2018-12-24T19:26:28.669Z,8.00
2018-12-24T19:28:57.120Z,7.90
2018-12-24T19:31:25.828Z,8.00
2018-12-24T19:33:54.337Z,7.90
2018-12-24T19:36:23.096Z,7.90
2018-12-24T19:38:51.899Z,7.90
2018-12-24T19:41:20.571Z,7.90
2018-12-24T19:43:49.014Z,7.80
2018-12-24T19:46:17.429Z,7.80
2018-12-24T19:48:45.875Z,7.90
2018-12-24T19:51:14.327Z,7.90
2018-12-24T19:53:43.163Z,7.90
2018-12-24T19:56:11.569Z,7.90
2018-12-24T19:58:40.008Z,7.90
2018-12-24T20:01:08.502Z,8.00
2018-12-24T20:03:36.932Z,8.00
2018-12-24T20:06:05.588Z,8.00
2018-12-24T20:08:34.040Z,8.10
2018-12-24T20:11:02.522Z,8.10
2018-12-24T20:13:30.950Z,8.10
2018-12-24T20:15:59.713Z,8.20
2018-12-24T20:18:28.154Z,8.20
2018-12-24T20:20:56.629Z,8.20
2018-12-24T20:23:25.090Z,8.20
2018-12-24T20:25:53.842Z,8.10
2018-12-24T20:28:22.301Z,8.00
2018-12-24T20:30:50.711Z,8.00
2018-12-24T20:33:19.382Z,8.00
2018-12-24T20:35:48.155Z,8.00
2018-12-24T20:38:16.837Z,7.90
2018-12-24T20:40:45.316Z,7.80
2018-12-24T20:43:13.711Z,7.70
2018-12-24T20:45:42.322Z,7.70
2018-12-24T20:48:10.742Z,7.70
2018-12-24T20:50:39.185Z,7.70
2018-12-24T20:53:07.598Z,7.80
2018-12-24T20:55:36.059Z,7.70
2018-12-24T20:58:04.903Z,7.70
2018-12-24T21:00:33.461Z,7.70
2018-12-24T21:03:01.870Z,7.80
2018-12-24T21:05:30.533Z,7.80
2018-12-24T21:07:59.334Z,7.80
2018-12-24T21:10:27.718Z,7.80
2018-12-24T21:12:56.499Z,7.70
2018-12-24T21:15:25.288Z,7.70
2018-12-24T21:17:54.086Z,7.80
2018-12-24T21:20:22.504Z,7.80
2018-12-24T21:22:50.951Z,7.90
2018-12-24T21:25:19.712Z,8.00
2018-12-24T21:27:48.512Z,8.00
2018-12-24T21:30:16.910Z,8.00
2018-12-24T21:32:45.372Z,8.10
2018-12-24T21:35:13.763Z,8.10
2018-12-24T21:37:42.635Z,8.10
2018-12-24T21:40:11.335Z,8.20
2018-12-24T21:42:40.328Z,8.20
2018-12-24T21:45:09.109Z,8.20
2018-12-24T21:47:37.891Z,8.20
2018-12-24T21:50:06.782Z,8.20
2018-12-24T21:52:35.572Z,8.10
2018-12-24T21:55:04.070Z,8.10
2018-12-24T21:57:33.104Z,8.10
2018-12-24T22:00:01.551Z,8.00
2018-12-24T22:02:30.302Z,8.00
2018-12-24T22:04:58.741Z,8.00
2018-12-24T22:07:27.165Z,8.00
2018-12-24T22:09:55.956Z,7.90
2018-12-24T22:12:24.482Z,8.00
2018-12-24T22:14:53.249Z,8.00
2018-12-24T22:17:22.015Z,8.00
2018-12-24T22:19:50.727Z,8.10
2018-12-24T22:22:19.145Z,8.10
2018-12-24T22:24:47.850Z,8.10
2018-12-24T22:27:16.528Z,8.10
2018-12-24T22:29:45.352Z,8.10
2018-12-24T22:32:13.758Z,8.10
2018-12-24T22:34:42.498Z,8.10
2018-12-24T22:37:10.911Z,8.10
2018-12-24T22:39:39.351Z,8.10
2018-12-24T22:42:08.158Z,8.10
2018-12-24T22:44:36.611Z,8.10
2018-12-24T22:47:05.452Z,8.10
2018-12-24T22:49:34.189Z,8.00
2018-12-24T22:52:02.597Z,8.00
2018-12-24T22:54:31.361Z,7.90
2018-12-24T22:56:59.768Z,7.90
2018-12-24T22:59:28.510Z,7.80
2018-12-24T23:01:57.223Z,7.80
2018-12-24T23:04:25.666Z,7.80
2018-12-24T23:06:54.125Z,7.80
2018-12-24T23:09:22.952Z,7.70
2018-12-24T23:11:51.372Z,7.80
2018-12-24T23:14:20.125Z,7.70
2018-12-24T23:16:48.549Z,7.70
2018-12-24T23:19:17.034Z,7.60
2018-12-24T23:21:45.446Z,7.60
2018-12-24T23:24:14.155Z,7.60
2018-12-24T23:26:42.608Z,7.60
2018-12-24T23:29:11.456Z,7.50
2018-12-24T23:31:40.207Z,7.60
2018-12-24T23:34:09.779Z,7.50
2018-12-24T23:36:38.555Z,7.50
2018-12-24T23:39:07.399Z,7.50
2018-12-24T23:41:35.817Z,7.50
2018-12-24T23:44:04.411Z,7.50
2018-12-24T23:46:32.865Z,7.50
2018-12-24T23:49:02.868Z,7.50
2018-12-24T23:51:31.641Z,7.50
2018-12-24T23:54:00.087Z,7.50
2018-12-24T23:56:28.793Z,7.60
2018-12-24T23:58:57.594Z,7.60
